createdAt,value
2022-11-01T00:00:59.179Z,12.65
2022-11-01T00:03:25.917Z,12.72
2022-11-01T00:05:53.050Z,12.75
2022-11-01T00:08:21.105Z,12.78
2022-11-01T00:10:48.118Z,12.82
2022-11-01T00:13:14.807Z,12.79
2022-11-01T00:15:42.459Z,12.82
2022-11-01T00:18:09.331Z,12.85
2022-11-01T00:20:36.088Z,12.90
2022-11-01T00:23:03.168Z,12.91
2022-11-01T00:25:31.528Z,12.95
2022-11-01T00:27:58.429Z,12.99
2022-11-01T00:30:25.387Z,12.98
2022-11-01T00:32:52.057Z,12.95
2022-11-01T00:35:18.915Z,12.96
2022-11-01T00:37:45.605Z,12.96
2022-11-01T00:40:12.982Z,12.94
2022-11-01T00:42:41.011Z,12.88
2022-11-01T00:45:08.538Z,12.90
2022-11-01T00:47:35.236Z,12.90
2022-11-01T00:50:02.244Z,12.85
2022-11-01T00:52:29.612Z,12.80
2022-11-01T00:54:56.323Z,12.76
2022-11-01T00:57:23.451Z,12.75
2022-11-01T01:02:23.206Z,12.74
2022-11-01T01:04:50.343Z,12.73
2022-11-01T01:07:17.674Z,12.70
2022-11-01T01:09:44.599Z,12.69
2022-11-01T01:12:11.538Z,12.69
2022-11-01T01:14:38.312Z,12.69
2022-11-01T01:17:06.387Z,12.71
2022-11-01T01:19:33.248Z,12.70
2022-11-01T01:21:59.989Z,12.68
2022-11-01T01:24:27.441Z,12.74
2022-11-01T01:26:54.255Z,12.74
2022-11-01T01:29:21.072Z,12.71
2022-11-01T01:31:49.771Z,12.72
2022-11-01T01:34:18.538Z,12.75
2022-11-01T01:36:50.756Z,12.61
2022-11-01T01:39:17.934Z,12.66
2022-11-01T01:41:44.853Z,12.59
2022-11-01T01:45:24.475Z,12.58
2022-11-01T01:47:54.269Z,12.64
2022-11-01T01:50:29.359Z,12.61
2022-11-01T01:53:05.348Z,12.65
2022-11-01T01:55:41.412Z,12.64
2022-11-01T01:58:11.677Z,12.66
2022-11-01T02:00:39.884Z,12.68
2022-11-01T02:03:07.293Z,12.71
2022-11-01T02:05:44.879Z,12.73
2022-11-01T02:08:14.461Z,12.75
2022-11-01T02:10:42.137Z,12.81
2022-11-01T02:13:14.109Z,12.85
2022-11-01T02:15:59.248Z,12.85
2022-11-01T02:18:40.160Z,12.87
2022-11-01T02:21:43.747Z,12.89
2022-11-01T02:24:44.523Z,12.89
2022-11-01T02:27:23.611Z,12.72
2022-11-01T02:30:09.691Z,12.70
2022-11-01T02:33:12.615Z,12.79
2022-11-01T02:35:56.386Z,12.83
2022-11-01T02:38:32.372Z,12.84
2022-11-01T02:41:10.678Z,12.80
2022-11-01T02:43:50.644Z,12.81
2022-11-01T02:46:21.386Z,12.85
2022-11-01T02:48:50.332Z,12.78
2022-11-01T02:51:22.916Z,12.59
2022-11-01T02:53:49.888Z,12.62
2022-11-01T02:56:18.387Z,12.69
2022-11-01T02:58:48.159Z,12.77
2022-11-01T03:01:25.035Z,12.80
2022-11-01T03:03:58.608Z,12.85
2022-11-01T03:06:33.403Z,12.56
2022-11-01T03:09:07.310Z,12.65
2022-11-01T03:11:48.879Z,12.67
2022-11-01T03:14:31.672Z,12.59
2022-11-01T03:17:08.092Z,12.71
2022-11-01T03:19:47.186Z,12.76
2022-11-01T03:22:24.609Z,12.59
2022-11-01T03:25:03.011Z,12.39
2022-11-01T03:27:39.525Z,12.02
2022-11-01T03:30:11.001Z,12.04
2022-11-01T03:32:46.709Z,12.22
2022-11-01T03:35:21.860Z,12.37
2022-11-01T03:37:54.372Z,12.50
2022-11-01T03:40:26.689Z,12.55
2022-11-01T03:43:01.730Z,12.64
2022-11-01T03:45:34.557Z,12.70
2022-11-01T03:48:02.290Z,12.71
2022-11-01T03:50:30.555Z,12.75
2022-11-01T03:52:58.399Z,12.81
2022-11-01T03:55:25.995Z,12.84
2022-11-01T03:57:55.901Z,12.86
2022-11-01T04:00:27.466Z,12.83
2022-11-01T04:02:56.768Z,12.38
2022-11-01T04:05:26.103Z,12.37
2022-11-01T04:08:09.417Z,12.55
2022-11-01T04:10:37.549Z,12.64
2022-11-01T04:13:04.966Z,12.66
2022-11-01T04:15:32.090Z,12.73
2022-11-01T04:18:11.310Z,12.84
2022-11-01T04:20:38.458Z,12.90
2022-11-01T04:23:07.422Z,12.94
2022-11-01T04:25:34.707Z,12.96
2022-11-01T04:28:01.440Z,12.98
2022-11-01T04:30:29.905Z,13.00
2022-11-01T04:32:56.838Z,13.04
2022-11-01T04:35:24.111Z,13.10
2022-11-01T04:37:56.463Z,13.14
2022-11-01T04:40:25.431Z,13.12
2022-11-01T04:42:52.184Z,13.18
2022-11-01T04:45:19.949Z,13.18
2022-11-01T04:47:46.984Z,13.21
2022-11-01T04:50:14.441Z,12.89
2022-11-01T04:52:41.301Z,12.59
2022-11-01T04:55:08.761Z,12.31
2022-11-01T04:57:39.419Z,12.38
2022-11-01T05:00:08.976Z,12.48
2022-11-01T05:02:36.160Z,12.52
2022-11-01T05:05:03.642Z,12.47
2022-11-01T05:07:30.572Z,12.60
2022-11-01T05:09:57.310Z,12.68
2022-11-01T05:12:24.397Z,12.78
2022-11-01T05:14:56.682Z,12.65
2022-11-01T05:17:24.133Z,12.41
2022-11-01T05:19:51.290Z,12.37
2022-11-01T05:22:18.060Z,12.49
2022-11-01T05:24:45.215Z,12.55
2022-11-01T05:27:11.959Z,12.55
2022-11-01T05:29:38.922Z,12.57
2022-11-01T05:32:06.977Z,12.68
2022-11-01T05:34:33.966Z,12.72
2022-11-01T05:37:00.730Z,12.79
2022-11-01T05:39:27.638Z,12.91
2022-11-01T05:41:56.828Z,13.00
2022-11-01T05:44:27.195Z,13.06
2022-11-01T05:46:54.538Z,13.11
2022-11-01T05:49:22.579Z,13.19
2022-11-01T05:51:49.321Z,13.23
2022-11-01T05:54:16.094Z,13.27
2022-11-01T05:56:42.829Z,13.20
2022-11-01T05:59:09.776Z,13.18
2022-11-01T06:01:36.628Z,13.18
2022-11-01T06:04:03.667Z,13.24
2022-11-01T06:06:32.650Z,13.33
2022-11-01T06:09:00.386Z,13.39
2022-11-01T06:11:27.562Z,13.44
2022-11-01T06:13:54.546Z,13.46
2022-11-01T06:16:22.085Z,13.42
2022-11-01T06:18:49.508Z,13.48
2022-11-01T06:21:16.358Z,13.54
2022-11-01T06:23:48.800Z,13.33
2022-11-01T06:26:16.011Z,13.20
2022-11-01T06:28:42.983Z,13.11
2022-11-01T06:31:09.948Z,13.17
2022-11-01T06:33:36.676Z,13.29
2022-11-01T06:36:04.723Z,13.38
2022-11-01T06:38:32.605Z,13.47
2022-11-01T06:41:01.142Z,13.54
2022-11-01T06:43:27.946Z,13.63
2022-11-01T06:45:54.786Z,13.70
2022-11-01T06:48:21.596Z,13.79
2022-11-01T06:50:48.349Z,13.81
2022-11-01T06:53:15.313Z,13.89
2022-11-01T06:55:42.044Z,13.96
2022-11-01T06:58:10.094Z,14.00
2022-11-01T07:00:36.945Z,14.04
2022-11-01T07:03:07.235Z,14.06
2022-11-01T07:05:37.520Z,14.11
2022-11-01T07:08:10.006Z,14.15
2022-11-01T07:10:39.144Z,14.21
2022-11-01T07:13:09.150Z,14.23
2022-11-01T07:15:38.051Z,14.28
2022-11-01T07:18:07.525Z,14.32
2022-11-01T07:20:36.310Z,14.36
2022-11-01T07:23:05.907Z,14.39
2022-11-01T07:25:33.444Z,14.41
2022-11-01T07:28:00.153Z,14.40
2022-11-01T07:30:28.283Z,14.45
2022-11-01T07:32:58.177Z,14.52
2022-11-01T07:35:26.461Z,14.47
2022-11-01T07:37:55.918Z,14.54
2022-11-01T07:40:22.905Z,14.19
2022-11-01T07:42:49.611Z,14.09
2022-11-01T07:45:16.558Z,14.31
2022-11-01T07:47:44.016Z,14.38
2022-11-01T07:50:12.154Z,14.59
2022-11-01T07:52:39.028Z,14.79
2022-11-01T07:55:07.696Z,14.97
2022-11-01T07:57:37.489Z,15.01
2022-11-01T08:00:06.487Z,15.17
2022-11-01T08:02:39.265Z,15.32
2022-11-01T08:05:07.002Z,15.48
2022-11-01T08:07:39.542Z,15.35
2022-11-01T08:10:09.969Z,15.10
2022-11-01T08:12:38.025Z,15.19
2022-11-01T08:15:06.217Z,15.40
2022-11-01T08:17:34.383Z,15.61
2022-11-01T08:20:01.219Z,15.87
2022-11-01T08:22:28.164Z,15.99
2022-11-01T08:24:56.425Z,16.12
2022-11-01T08:27:23.386Z,15.96
2022-11-01T08:29:50.223Z,15.73
2022-11-01T08:32:20.468Z,15.50
2022-11-01T08:34:47.540Z,15.52
2022-11-01T08:37:14.891Z,15.49
2022-11-01T08:39:41.944Z,15.40
2022-11-01T08:42:10.215Z,15.42
2022-11-01T08:44:37.204Z,15.45
2022-11-01T08:47:04.366Z,15.39
2022-11-01T08:49:31.245Z,15.54
2022-11-01T08:51:58.032Z,15.81
2022-11-01T08:54:24.749Z,16.05
2022-11-01T08:56:51.521Z,16.29
2022-11-01T08:59:19.767Z,16.60
2022-11-01T09:01:46.833Z,16.77
2022-11-01T09:04:14.412Z,16.86
2022-11-01T09:06:41.251Z,16.96
2022-11-01T09:09:08.059Z,17.03
2022-11-01T09:11:34.857Z,17.11
2022-11-01T09:14:01.999Z,16.79
2022-11-01T09:16:30.286Z,16.86
2022-11-01T09:18:57.408Z,17.01
2022-11-01T09:21:29.056Z,16.77
2022-11-01T09:23:58.339Z,17.14
2022-11-01T09:26:25.349Z,17.65
2022-11-01T09:28:52.545Z,17.67
2022-11-01T09:31:21.584Z,17.85
2022-11-01T09:33:50.065Z,18.13
2022-11-01T09:36:16.828Z,18.32
2022-11-01T09:38:43.577Z,18.28
2022-11-01T09:41:25.433Z,18.48
2022-11-01T09:43:54.963Z,18.56
2022-11-01T09:46:27.408Z,18.93
2022-11-01T09:48:58.489Z,19.10
2022-11-01T09:51:26.494Z,19.81
2022-11-01T09:53:58.045Z,20.77
2022-11-01T09:56:33.440Z,20.57
2022-11-01T09:59:16.533Z,20.19
2022-11-01T10:01:57.602Z,20.22
2022-11-01T10:05:05.401Z,20.25
2022-11-01T10:07:49.745Z,20.66
2022-11-01T10:10:37.368Z,20.76
2022-11-01T10:13:25.134Z,20.59
2022-11-01T10:16:04.238Z,20.45
2022-11-01T10:18:37.478Z,20.27
2022-11-01T10:21:15.262Z,20.00
2022-11-01T10:23:50.214Z,19.89
2022-11-01T10:26:26.080Z,19.80
2022-11-01T10:29:04.367Z,19.68
2022-11-01T10:31:42.761Z,19.55
2022-11-01T10:34:23.289Z,19.67
2022-11-01T10:37:00.809Z,19.92
2022-11-01T10:39:54.709Z,20.35
2022-11-01T10:42:23.675Z,20.77
2022-11-01T10:44:58.089Z,21.08
2022-11-01T10:47:26.624Z,21.60
2022-11-01T10:50:05.879Z,21.71
2022-11-01T10:52:49.308Z,21.79
2022-11-01T10:55:24.949Z,21.88
2022-11-01T10:57:58.337Z,21.40
2022-11-01T11:00:25.641Z,20.88
2022-11-01T11:02:57.454Z,20.83
2022-11-01T11:05:29.389Z,21.12
2022-11-01T11:07:57.870Z,21.37
2022-11-01T11:10:28.155Z,21.81
2022-11-01T11:13:00.813Z,22.65
2022-11-01T11:15:39.517Z,22.42
2022-11-01T11:18:22.411Z,22.00
2022-11-01T11:20:56.907Z,21.42
2022-11-01T11:23:28.840Z,20.06
2022-11-01T11:26:03.012Z,19.65
2022-11-01T11:28:34.299Z,19.96
2022-11-01T11:31:14.157Z,20.72
2022-11-01T11:33:49.784Z,21.08
2022-11-01T11:36:16.867Z,20.41
2022-11-01T11:38:47.314Z,19.96
2022-11-01T11:41:29.533Z,19.36
2022-11-01T11:43:56.628Z,19.18
2022-11-01T11:46:23.582Z,19.14
2022-11-01T11:48:53.394Z,19.33
2022-11-01T11:51:21.468Z,19.29
2022-11-01T11:54:20.204Z,19.14
2022-11-01T11:56:51.311Z,18.99
2022-11-01T11:59:28.043Z,19.03
2022-11-01T12:01:58.545Z,19.17
2022-11-01T12:04:36.418Z,19.31
2022-11-01T12:07:03.630Z,19.37
2022-11-01T12:09:44.524Z,19.40
2022-11-01T12:12:22.898Z,19.45
2022-11-01T12:14:50.380Z,19.61
2022-11-01T12:17:30.386Z,19.63
2022-11-01T12:20:15.989Z,19.67
2022-11-01T12:22:49.970Z,19.66
2022-11-01T12:25:23.545Z,19.57
2022-11-01T12:27:58.623Z,19.11
2022-11-01T12:30:30.599Z,19.02
2022-11-01T12:33:01.233Z,18.82
2022-11-01T12:35:33.231Z,18.85
2022-11-01T12:38:27.733Z,18.78
2022-11-01T12:41:00.448Z,18.84
2022-11-01T12:43:42.336Z,18.88
2022-11-01T12:46:20.541Z,18.99
2022-11-01T12:48:57.540Z,19.06
2022-11-01T12:51:30.021Z,19.12
2022-11-01T12:54:06.520Z,19.00
2022-11-01T12:56:34.806Z,18.94
2022-11-01T12:59:01.540Z,18.88
2022-11-01T13:01:42.757Z,18.86
2022-11-01T13:04:27.601Z,19.02
2022-11-01T13:07:17.295Z,18.95
2022-11-01T13:09:59.157Z,18.89
2022-11-01T13:12:45.489Z,18.67
2022-11-01T13:15:24.218Z,18.69
2022-11-01T13:18:07.498Z,18.66
2022-11-01T13:20:50.259Z,18.60
2022-11-01T13:23:28.275Z,18.57
2022-11-01T13:26:04.059Z,18.64
2022-11-01T13:29:00.106Z,18.69
2022-11-01T13:31:52.647Z,18.78
2022-11-01T13:34:43.665Z,18.69
2022-11-01T13:37:26.689Z,18.65
2022-11-01T13:40:16.472Z,18.74
2022-11-01T13:42:53.661Z,18.82
2022-11-01T13:45:51.751Z,18.76
2022-11-01T13:48:33.365Z,18.63
2022-11-01T13:51:28.264Z,18.68
2022-11-01T13:54:02.807Z,18.73
2022-11-01T13:56:39.324Z,18.65
2022-11-01T13:59:13.995Z,18.48
2022-11-01T14:01:42.709Z,18.43
2022-11-01T14:04:54.801Z,18.37
2022-11-01T14:07:22.470Z,18.31
2022-11-01T14:09:51.595Z,18.27
2022-11-01T14:12:37.470Z,18.16
2022-11-01T14:15:27.186Z,18.04
2022-11-01T14:18:09.260Z,18.14
2022-11-01T14:20:49.552Z,18.13
2022-11-01T14:23:58.114Z,17.99
2022-11-01T14:26:44.326Z,17.90
2022-11-01T14:29:12.110Z,17.94
2022-11-01T14:31:43.098Z,17.85
2022-11-01T14:34:26.404Z,17.86
2022-11-01T14:37:00.274Z,17.87
2022-11-01T14:39:37.260Z,17.88
2022-11-01T14:42:10.042Z,17.77
2022-11-01T14:44:45.499Z,17.67
2022-11-01T14:47:31.116Z,17.55
2022-11-01T14:50:14.132Z,17.45
2022-11-01T14:52:50.696Z,17.38
2022-11-01T14:55:24.725Z,17.15
2022-11-01T14:58:16.794Z,17.10
2022-11-01T15:00:43.845Z,16.98
2022-11-01T15:03:11.028Z,16.89
2022-11-01T15:05:46.255Z,16.93
2022-11-01T15:08:23.496Z,16.94
2022-11-01T15:10:52.767Z,16.92
2022-11-01T15:13:21.564Z,16.97
2022-11-01T15:16:02.391Z,16.97
2022-11-01T15:18:30.568Z,17.00
2022-11-01T15:21:01.000Z,17.02
2022-11-01T15:23:37.258Z,17.02
2022-11-01T15:26:10.054Z,16.98
2022-11-01T15:28:42.957Z,16.96
2022-11-01T15:31:10.210Z,16.95
2022-11-01T15:33:37.683Z,16.98
2022-11-01T15:36:18.433Z,16.93
2022-11-01T15:38:51.793Z,16.89
2022-11-01T15:41:28.504Z,16.85
2022-11-01T15:43:58.256Z,16.85
2022-11-01T15:46:32.985Z,16.82
2022-11-01T15:49:07.231Z,16.80
2022-11-01T15:51:42.283Z,16.72
2022-11-01T15:54:28.093Z,16.69
2022-11-01T15:57:04.283Z,16.56
2022-11-01T15:59:42.086Z,16.51
2022-11-01T16:02:24.413Z,16.47
2022-11-01T16:04:51.835Z,16.37
2022-11-01T16:07:22.185Z,16.31
2022-11-01T16:09:55.612Z,16.20
2022-11-01T16:12:26.644Z,16.18
2022-11-01T16:15:00.184Z,15.97
2022-11-01T16:17:34.229Z,15.73
2022-11-01T16:20:02.158Z,15.72
2022-11-01T16:22:37.159Z,15.77
2022-11-01T16:25:18.424Z,15.70
2022-11-01T16:27:55.597Z,15.54
2022-11-01T16:30:38.517Z,15.33
2022-11-01T16:33:16.504Z,15.23
2022-11-01T16:35:44.497Z,15.10
2022-11-01T16:38:36.148Z,15.04
2022-11-01T16:41:06.943Z,15.07
2022-11-01T16:43:35.253Z,14.93
2022-11-01T16:46:05.313Z,14.90
2022-11-01T16:48:47.855Z,14.85
2022-11-01T16:51:14.765Z,14.78
2022-11-01T16:53:42.997Z,14.68
2022-11-01T16:56:35.686Z,14.67
2022-11-01T16:59:08.276Z,14.59
2022-11-01T17:01:36.468Z,14.61
2022-11-01T17:04:04.687Z,14.56
2022-11-01T17:06:37.742Z,14.51
2022-11-01T17:09:12.962Z,14.42
2022-11-01T17:11:40.246Z,14.40
2022-11-01T17:14:06.996Z,14.41
2022-11-01T17:16:34.649Z,14.44
2022-11-01T17:19:02.927Z,14.44
2022-11-01T17:21:36.655Z,14.44
2022-11-01T17:24:04.471Z,14.40
2022-11-01T17:26:33.811Z,14.37
2022-11-01T17:29:00.616Z,14.39
2022-11-01T17:31:27.349Z,14.41
2022-11-01T17:33:54.114Z,14.37
2022-11-01T17:36:20.905Z,14.35
2022-11-01T17:38:47.900Z,14.33
2022-11-01T17:41:18.436Z,14.39
2022-11-01T17:43:46.882Z,14.43
2022-11-01T17:46:18.307Z,14.45
2022-11-01T17:48:45.026Z,14.41
2022-11-01T17:51:11.937Z,14.37
2022-11-01T17:53:38.835Z,14.30
2022-11-01T17:56:06.826Z,14.18
2022-11-01T17:58:33.711Z,14.08
2022-11-01T18:01:02.914Z,13.95
2022-11-01T18:03:29.811Z,13.74
2022-11-01T18:05:57.762Z,13.79
2022-11-01T18:08:27.992Z,13.85
2022-11-01T18:11:13.237Z,13.81
2022-11-01T18:14:01.124Z,13.62
2022-11-01T18:16:45.635Z,13.55
2022-11-01T18:19:38.432Z,13.46
2022-11-01T18:22:17.882Z,13.48
2022-11-01T18:24:51.328Z,13.55
2022-11-01T18:27:30.821Z,13.58
2022-11-01T18:29:57.582Z,13.61
2022-11-01T18:32:38.006Z,13.61
2022-11-01T18:35:21.215Z,13.63
2022-11-01T18:38:10.501Z,13.64
2022-11-01T18:40:51.444Z,13.56
2022-11-01T18:43:20.443Z,13.26
2022-11-01T18:46:11.545Z,13.18
2022-11-01T18:48:37.051Z,13.11
2022-11-01T18:51:13.699Z,13.19
2022-11-01T18:53:40.825Z,13.24
2022-11-01T18:56:21.416Z,13.25
2022-11-01T18:58:53.081Z,13.27
2022-11-01T19:01:23.843Z,13.28
2022-11-01T19:04:01.468Z,13.09
2022-11-01T19:06:31.914Z,12.97
2022-11-01T19:09:09.521Z,12.93
2022-11-01T19:11:36.549Z,13.00
2022-11-01T19:14:05.191Z,13.06
2022-11-01T19:16:32.189Z,13.08
2022-11-01T19:19:00.361Z,12.78
2022-11-01T19:21:29.556Z,12.53
2022-11-01T19:23:56.726Z,12.54
2022-11-01T19:26:32.306Z,12.58
2022-11-01T19:28:59.213Z,12.57
2022-11-01T19:31:30.836Z,12.62
2022-11-01T19:34:03.706Z,12.68
2022-11-01T19:39:24.392Z,12.68
2022-11-01T19:41:53.468Z,12.69
2022-11-01T19:44:23.973Z,12.68
2022-11-01T19:46:58.410Z,12.63
2022-11-01T19:49:29.833Z,12.64
2022-11-01T19:52:22.346Z,12.64
2022-11-01T19:54:53.004Z,12.60
2022-11-01T19:57:29.202Z,12.60
2022-11-01T20:00:17.601Z,12.57
2022-11-01T20:02:45.409Z,12.60
2022-11-01T20:05:27.776Z,12.49
2022-11-01T20:08:12.956Z,12.22
2022-11-01T20:10:40.039Z,12.00
2022-11-01T20:13:06.954Z,12.04
2022-11-01T20:15:34.072Z,11.74
2022-11-01T20:18:02.049Z,11.78
2022-11-01T20:20:31.756Z,11.90
2022-11-01T20:23:20.345Z,11.93
2022-11-01T20:25:45.890Z,11.85
2022-11-01T20:28:12.708Z,11.62
2022-11-01T20:30:39.514Z,11.58
2022-11-01T20:33:06.797Z,11.62
2022-11-01T20:35:35.100Z,11.65
2022-11-01T20:38:01.825Z,11.71
2022-11-01T20:40:28.587Z,11.54
2022-11-01T20:42:55.284Z,11.55
2022-11-01T20:45:22.906Z,11.52
2022-11-01T20:47:49.716Z,11.52
2022-11-01T20:50:18.508Z,11.54
2022-11-01T20:52:46.720Z,11.53
2022-11-01T20:55:13.782Z,11.55
2022-11-01T20:57:41.001Z,11.59
2022-11-01T21:00:10.635Z,11.61
2022-11-01T21:02:37.661Z,11.62
2022-11-01T21:05:20.741Z,11.68
2022-11-01T21:07:52.665Z,11.64
2022-11-01T21:10:30.675Z,11.64
2022-11-01T21:12:58.664Z,11.66
2022-11-01T21:15:35.598Z,11.65
2022-11-01T21:18:38.700Z,11.63
2022-11-01T21:21:31.297Z,11.65
2022-11-01T21:24:25.768Z,11.67
2022-11-01T21:27:00.126Z,11.59
2022-11-01T21:29:29.400Z,11.53
2022-11-01T21:31:56.696Z,11.49
2022-11-01T21:34:27.572Z,11.29
2022-11-01T21:36:56.996Z,11.18
2022-11-01T21:39:28.553Z,11.29
2022-11-01T21:41:58.767Z,11.40
2022-11-01T21:44:30.658Z,11.41
2022-11-01T21:47:13.805Z,11.48
2022-11-01T21:49:41.026Z,11.53
2022-11-01T21:54:40.712Z,11.57
2022-11-01T21:57:10.325Z,11.59
2022-11-01T21:59:37.563Z,11.58
2022-11-01T22:02:07.499Z,11.58
2022-11-01T22:04:34.446Z,11.58
2022-11-01T22:07:03.920Z,11.56
2022-11-01T22:09:32.439Z,11.57
2022-11-01T22:12:00.909Z,11.53
2022-11-01T22:14:28.007Z,11.49
2022-11-01T22:16:55.326Z,11.44
2022-11-01T22:19:22.448Z,11.50
2022-11-01T22:21:49.204Z,11.47
2022-11-01T22:24:16.196Z,11.46
2022-11-01T22:26:42.980Z,11.44
2022-11-01T22:29:11.630Z,11.14
2022-11-01T22:31:38.462Z,11.10
2022-11-01T22:34:05.517Z,11.11
2022-11-01T22:36:36.187Z,11.08
2022-11-01T22:39:16.872Z,11.09
2022-11-01T22:41:44.419Z,11.06
2022-11-01T22:44:16.407Z,10.60
2022-11-01T22:46:49.405Z,10.34
2022-11-01T22:49:23.484Z,10.19
2022-11-01T22:51:54.833Z,10.30
2022-11-01T22:54:29.914Z,10.40
2022-11-01T22:57:02.749Z,10.51
2022-11-01T22:59:34.300Z,10.59
2022-11-01T23:02:24.174Z,10.61
2022-11-01T23:05:01.446Z,10.68
2022-11-01T23:07:34.414Z,10.78
2022-11-01T23:10:03.976Z,10.77
2022-11-01T23:12:33.313Z,10.79
2022-11-01T23:15:01.370Z,10.82
2022-11-01T23:17:36.053Z,10.82
2022-11-01T23:20:04.836Z,10.88
2022-11-01T23:22:35.896Z,10.93
2022-11-01T23:25:04.907Z,10.81
2022-11-01T23:27:31.948Z,10.88
2022-11-01T23:30:02.370Z,10.85
2022-11-01T23:32:31.547Z,10.82
2022-11-01T23:35:10.989Z,10.86
2022-11-01T23:37:37.889Z,10.83
2022-11-01T23:40:13.325Z,10.79
2022-11-01T23:42:40.600Z,10.63
2022-11-01T23:45:27.533Z,10.58
2022-11-01T23:47:54.883Z,10.64
2022-11-01T23:50:28.926Z,10.48
2022-11-01T23:52:59.560Z,10.54
2022-11-01T23:55:31.199Z,10.56
2022-11-01T23:58:02.374Z,10.45
